createdAt,value
2019-05-22T00:01:45.231Z,5.47
2019-05-22T00:04:24.054Z,5.87
2019-05-22T00:06:56.261Z,5.97
2019-05-22T00:09:37.641Z,5.67
2019-05-22T00:12:10.969Z,6.03
2019-05-22T00:14:40.493Z,5.80
2019-05-22T00:17:14.869Z,5.97
2019-05-22T00:19:44.134Z,5.90
2019-05-22T00:22:23.431Z,5.33
2019-05-22T00:24:54.329Z,5.90
2019-05-22T00:27:25.489Z,5.67
2019-05-22T00:29:55.993Z,5.70
2019-05-22T00:32:25.018Z,5.77
2019-05-22T00:35:13.957Z,6.00
2019-05-22T00:38:04.966Z,5.90
2019-05-22T00:40:53.148Z,6.33
2019-05-22T00:43:29.614Z,6.37
2019-05-22T00:45:58.099Z,6.40
2019-05-22T00:48:28.344Z,6.43
2019-05-22T00:51:09.402Z,6.87
2019-05-22T00:53:48.789Z,6.70
2019-05-22T00:56:33.040Z,5.93
2019-05-22T00:59:08.113Z,6.30
2019-05-22T01:01:44.764Z,5.97
2019-05-22T01:04:16.174Z,6.50
2019-05-22T01:06:48.164Z,6.07
2019-05-22T01:09:24.817Z,5.93
2019-05-22T01:11:55.179Z,6.13
2019-05-22T01:14:25.257Z,6.20
2019-05-22T01:16:56.222Z,6.50
2019-05-22T01:19:24.596Z,6.43
2019-05-22T01:21:54.931Z,5.87
2019-05-22T01:24:24.591Z,5.70
2019-05-22T01:26:54.376Z,6.07
2019-05-22T01:29:24.829Z,5.93
2019-05-22T01:31:59.696Z,6.00
2019-05-22T01:34:30.534Z,6.10
2019-05-22T01:37:07.034Z,6.70
2019-05-22T01:39:55.274Z,6.57
2019-05-22T01:42:33.356Z,6.83
2019-05-22T01:45:06.797Z,6.57
2019-05-22T01:47:52.851Z,7.30
2019-05-22T01:50:47.115Z,6.70
2019-05-22T01:53:20.093Z,7.60
2019-05-22T01:55:55.400Z,7.03
2019-05-22T01:58:24.114Z,7.53
2019-05-22T02:00:54.809Z,7.10
2019-05-22T02:03:24.774Z,8.07
2019-05-22T02:05:54.494Z,8.07
2019-05-22T02:08:24.874Z,9.17
2019-05-22T02:10:57.318Z,9.00
2019-05-22T02:13:35.133Z,9.80
2019-05-22T02:16:05.467Z,9.50
2019-05-22T02:18:35.753Z,10.07
2019-05-22T02:21:04.115Z,10.20
2019-05-22T02:23:33.310Z,10.03
2019-05-22T02:26:04.304Z,10.10
2019-05-22T02:28:33.234Z,10.63
2019-05-22T02:31:01.578Z,9.47
2019-05-22T02:33:31.751Z,9.87
2019-05-22T02:36:00.780Z,10.30
2019-05-22T02:38:31.028Z,9.93
2019-05-22T02:41:00.691Z,10.73
2019-05-22T02:43:30.330Z,11.00
2019-05-22T02:45:59.604Z,10.93
2019-05-22T02:48:29.328Z,11.47
2019-05-22T02:50:59.278Z,11.27
2019-05-22T02:53:29.116Z,10.83
2019-05-22T02:55:57.965Z,10.10
2019-05-22T02:58:28.111Z,10.53
2019-05-22T03:01:00.895Z,10.73
2019-05-22T03:03:31.676Z,9.90
2019-05-22T03:06:05.149Z,10.73
2019-05-22T03:09:15.620Z,10.83
2019-05-22T03:12:00.727Z,11.40
2019-05-22T03:14:30.297Z,10.20
2019-05-22T03:17:04.377Z,11.10
2019-05-22T03:23:43.431Z,10.37
2019-05-22T03:26:12.714Z,10.73
2019-05-22T03:28:43.268Z,11.30
2019-05-22T03:31:12.823Z,11.03
2019-05-22T03:33:41.782Z,10.53
2019-05-22T03:36:15.032Z,11.03
2019-05-22T03:38:44.862Z,11.53
2019-05-22T03:41:14.968Z,11.13
2019-05-22T03:43:47.823Z,11.07
2019-05-22T03:46:43.232Z,13.23
2019-05-22T03:49:28.893Z,12.20
2019-05-22T03:51:50.278Z,11.97
2019-05-22T03:54:21.312Z,12.20
2019-05-22T03:56:50.166Z,11.57
2019-05-22T03:59:20.790Z,10.10
2019-05-22T04:01:48.997Z,10.67
2019-05-22T04:04:36.178Z,10.67
2019-05-22T04:07:07.853Z,9.70
2019-05-22T04:09:39.686Z,10.73
2019-05-22T04:12:09.994Z,10.40
2019-05-22T04:14:39.581Z,10.97
2019-05-22T04:17:10.233Z,10.50
2019-05-22T04:19:49.379Z,9.93
2019-05-22T04:22:12.564Z,10.53
2019-05-22T04:24:41.617Z,10.43
2019-05-22T04:27:11.312Z,10.27
2019-05-22T04:29:40.677Z,9.93
2019-05-22T04:32:16.896Z,10.87
2019-05-22T04:34:46.981Z,10.57
2019-05-22T04:37:15.699Z,10.47
2019-05-22T04:39:48.018Z,10.20
2019-05-22T04:42:18.672Z,10.27
2019-05-22T04:45:21.010Z,10.37
2019-05-22T04:47:57.859Z,10.10
2019-05-22T04:50:27.064Z,10.63
2019-05-22T04:52:56.424Z,10.37
2019-05-22T04:55:26.538Z,9.57
2019-05-22T04:58:00.520Z,9.80
2019-05-22T05:00:29.570Z,9.57
2019-05-22T05:02:58.679Z,9.40
2019-05-22T05:05:31.557Z,8.77
2019-05-22T05:08:01.448Z,9.67
2019-05-22T05:10:30.215Z,10.13
2019-05-22T05:12:59.053Z,8.50
2019-05-22T05:15:27.385Z,9.80
2019-05-22T05:17:56.957Z,8.00
2019-05-22T05:20:25.492Z,8.30
2019-05-22T05:24:14.676Z,7.93
2019-05-22T05:26:44.261Z,8.33
2019-05-22T05:29:27.977Z,8.07
2019-05-22T05:31:58.464Z,7.10
2019-05-22T05:34:55.557Z,7.13
2019-05-22T05:37:25.774Z,6.23
2019-05-22T05:40:48.742Z,6.43
2019-05-22T05:43:18.823Z,6.63
2019-05-22T05:45:49.140Z,6.23
2019-05-22T05:48:23.280Z,5.83
2019-05-22T05:51:39.763Z,5.90
2019-05-22T05:54:13.789Z,6.00
2019-05-22T05:56:47.843Z,5.47
2019-05-22T05:59:18.346Z,5.67
2019-05-22T06:01:55.231Z,5.37
2019-05-22T06:04:36.000Z,4.90
2019-05-22T06:07:21.269Z,5.50
2019-05-22T06:10:48.069Z,4.70
2019-05-22T06:13:17.267Z,5.10
2019-05-22T06:16:53.466Z,5.33
2019-05-22T06:19:23.259Z,5.10
2019-05-22T06:21:51.945Z,4.53
2019-05-22T06:24:27.309Z,4.90
2019-05-22T06:27:19.479Z,5.67
2019-05-22T06:30:12.722Z,5.30
2019-05-22T06:33:42.502Z,4.83
2019-05-22T06:36:14.173Z,4.67
2019-05-22T06:39:14.767Z,4.73
2019-05-22T06:41:44.814Z,4.53
2019-05-22T06:44:33.209Z,4.83
2019-05-22T06:47:02.545Z,4.43
2019-05-22T06:49:57.901Z,4.60
2019-05-22T06:52:26.861Z,4.50
2019-05-22T06:54:56.567Z,4.30
2019-05-22T06:57:29.021Z,3.87
2019-05-22T07:00:13.251Z,3.80
2019-05-22T07:02:36.250Z,4.10
2019-05-22T07:05:06.416Z,3.87
2019-05-22T07:07:34.912Z,3.93
2019-05-22T07:10:06.196Z,4.17
2019-05-22T07:12:35.316Z,3.90
2019-05-22T07:15:47.206Z,3.73
2019-05-22T07:18:19.520Z,3.63
2019-05-22T07:20:49.345Z,3.83
2019-05-22T07:23:32.396Z,4.00
2019-05-22T07:26:03.013Z,3.80
2019-05-22T07:28:32.684Z,3.73
2019-05-22T07:31:02.201Z,4.17
2019-05-22T07:33:31.681Z,4.20
2019-05-22T07:36:17.084Z,4.43
2019-05-22T07:38:32.637Z,4.30
2019-05-22T07:41:01.639Z,4.20
2019-05-22T07:43:30.314Z,4.07
2019-05-22T07:45:59.067Z,4.30
2019-05-22T07:48:29.501Z,4.50
2019-05-22T07:50:58.447Z,4.23
2019-05-22T07:53:28.515Z,3.95
2019-05-22T07:56:00.129Z,4.50
2019-05-22T07:58:30.562Z,4.30
2019-05-22T08:01:01.603Z,4.30
2019-05-22T08:03:31.953Z,4.58
2019-05-22T08:06:00.900Z,4.33
2019-05-22T08:08:32.544Z,4.42
2019-05-22T08:11:01.362Z,3.83
2019-05-22T08:13:31.687Z,4.28
2019-05-22T08:16:00.291Z,4.25
2019-05-22T08:18:33.475Z,4.15
2019-05-22T08:21:02.204Z,4.35
2019-05-22T08:23:30.882Z,4.50
2019-05-22T08:25:59.801Z,4.20
2019-05-22T08:28:31.707Z,4.40
2019-05-22T08:31:01.777Z,4.40
2019-05-22T08:33:31.961Z,4.00
2019-05-22T08:36:01.567Z,4.40
2019-05-22T08:38:32.577Z,4.30
2019-05-22T08:41:07.893Z,4.35
2019-05-22T08:44:03.412Z,4.87
2019-05-22T08:46:10.905Z,3.90
2019-05-22T08:48:47.810Z,4.40
2019-05-22T08:51:13.879Z,4.33
2019-05-22T08:53:47.656Z,4.28
2019-05-22T08:56:14.327Z,4.20
2019-05-22T08:58:45.637Z,4.10
2019-05-22T09:01:14.489Z,4.47
2019-05-22T09:03:44.115Z,3.95
2019-05-22T09:06:12.741Z,4.20
2019-05-22T09:08:41.419Z,4.73
2019-05-22T09:11:10.626Z,4.37
2019-05-22T09:13:39.179Z,4.60
2019-05-22T09:16:09.358Z,4.60
2019-05-22T09:18:38.099Z,4.60
2019-05-22T09:21:07.262Z,4.65
2019-05-22T09:23:37.187Z,4.62
2019-05-22T09:26:06.526Z,4.85
2019-05-22T09:28:36.909Z,4.10
2019-05-22T09:31:05.688Z,4.25
2019-05-22T09:33:36.132Z,4.58
2019-05-22T09:36:05.119Z,4.28
2019-05-22T09:38:33.480Z,4.30
2019-05-22T09:41:02.132Z,4.28
2019-05-22T09:43:31.029Z,6.22
2019-05-22T09:46:00.125Z,4.33
2019-05-22T09:48:28.643Z,4.50
2019-05-22T09:50:57.906Z,4.63
2019-05-22T09:53:27.936Z,4.40
2019-05-22T09:55:56.794Z,4.10
2019-05-22T09:58:25.445Z,4.70
2019-05-22T10:00:53.817Z,5.25
2019-05-22T10:03:22.884Z,4.05
2019-05-22T10:06:04.038Z,4.55
2019-05-22T10:08:33.795Z,3.90
2019-05-22T10:11:02.144Z,4.30
2019-05-22T10:13:31.599Z,4.70
2019-05-22T10:16:00.984Z,5.03
2019-05-22T10:18:29.377Z,4.45
2019-05-22T10:20:59.069Z,4.33
2019-05-22T10:23:30.029Z,4.67
2019-05-22T10:25:58.839Z,4.80
2019-05-22T10:28:27.363Z,4.80
2019-05-22T10:30:57.367Z,4.17
2019-05-22T10:33:26.794Z,4.15
2019-05-22T10:35:55.816Z,4.60
2019-05-22T10:38:24.784Z,4.60
2019-05-22T10:40:53.113Z,4.30
2019-05-22T10:43:22.006Z,3.98
2019-05-22T10:45:50.607Z,3.98
2019-05-22T10:48:19.357Z,4.20
2019-05-22T10:50:49.044Z,4.50
2019-05-22T10:53:32.333Z,4.25
2019-05-22T10:55:48.823Z,4.62
2019-05-22T10:58:17.368Z,3.98
2019-05-22T11:00:45.971Z,4.22
2019-05-22T11:03:17.001Z,4.00
2019-05-22T11:05:46.279Z,4.67
2019-05-22T11:08:14.959Z,4.15
2019-05-22T11:10:45.509Z,4.55
2019-05-22T11:13:14.610Z,3.92
2019-05-22T11:15:43.515Z,4.03
2019-05-22T11:18:12.567Z,4.70
2019-05-22T11:20:41.870Z,4.47
2019-05-22T11:23:11.011Z,3.50
2019-05-22T11:25:40.357Z,3.80
2019-05-22T11:28:09.724Z,3.55
2019-05-22T11:30:38.662Z,4.15
2019-05-22T11:33:08.283Z,3.20
2019-05-22T11:35:37.162Z,3.52
2019-05-22T11:38:05.466Z,3.30
2019-05-22T11:40:34.299Z,3.40
2019-05-22T11:43:03.626Z,7.22
2019-05-22T11:45:32.247Z,6.65
2019-05-22T11:48:00.969Z,9.48
2019-05-22T11:50:30.690Z,8.18
2019-05-22T11:52:59.214Z,10.63
2019-05-22T11:55:42.634Z,3.20
2019-05-22T11:57:58.605Z,3.10
2019-05-22T12:00:27.218Z,2.83
2019-05-22T12:02:55.844Z,10.43
2019-05-22T12:05:24.981Z,4.58
2019-05-22T12:07:53.862Z,3.00
2019-05-22T12:10:23.628Z,5.00
2019-05-22T12:12:54.600Z,3.77
2019-05-22T12:15:28.847Z,3.30
2019-05-22T12:17:58.324Z,4.22
2019-05-22T12:20:28.577Z,3.47
2019-05-22T12:22:58.620Z,3.75
2019-05-22T12:25:28.139Z,4.62
2019-05-22T12:27:57.439Z,3.10
2019-05-22T12:30:28.529Z,3.20
2019-05-22T12:32:58.768Z,4.37
2019-05-22T12:35:27.835Z,2.30
2019-05-22T12:37:58.899Z,2.62
2019-05-22T12:40:33.222Z,2.83
2019-05-22T12:43:03.511Z,4.10
2019-05-22T12:45:33.833Z,2.90
2019-05-22T12:48:03.707Z,3.37
2019-05-22T12:50:33.226Z,3.25
2019-05-22T12:53:07.435Z,3.70
2019-05-22T12:55:36.576Z,17.62
2019-05-22T12:58:06.955Z,6.62
2019-05-22T13:00:35.813Z,1.95
2019-05-22T13:03:06.339Z,2.30
2019-05-22T13:05:37.139Z,7.80
2019-05-22T13:08:07.192Z,2.62
2019-05-22T13:10:37.563Z,4.60
2019-05-22T13:13:06.409Z,2.58
2019-05-22T13:15:38.200Z,2.95
2019-05-22T13:18:09.464Z,3.50
2019-05-22T13:20:44.365Z,3.50
2019-05-22T13:23:14.259Z,3.37
2019-05-22T13:25:49.077Z,3.27
2019-05-22T13:28:19.164Z,3.25
2019-05-22T13:30:54.484Z,4.30
2019-05-22T13:33:27.132Z,4.03
2019-05-22T13:35:56.037Z,4.53
2019-05-22T13:38:25.804Z,3.70
2019-05-22T13:40:55.647Z,4.17
2019-05-22T13:43:26.396Z,3.57
2019-05-22T13:45:55.346Z,3.77
2019-05-22T13:48:24.444Z,6.40
2019-05-22T13:50:54.079Z,3.85
2019-05-22T13:53:22.890Z,4.55
2019-05-22T13:55:51.903Z,7.00
2019-05-22T13:58:21.991Z,7.93
2019-05-22T14:00:51.024Z,4.62
2019-05-22T14:03:21.881Z,3.65
2019-05-22T14:05:50.811Z,4.00
2019-05-22T14:08:20.162Z,3.02
2019-05-22T14:10:50.336Z,3.27
2019-05-22T14:13:21.485Z,3.05
2019-05-22T14:15:56.166Z,3.50
2019-05-22T14:18:20.769Z,3.20
2019-05-22T14:20:49.640Z,3.40
2019-05-22T14:23:19.205Z,3.60
2019-05-22T14:25:50.212Z,3.70
2019-05-22T14:28:19.972Z,3.90
2019-05-22T14:30:49.181Z,4.15
2019-05-22T14:33:18.400Z,3.22
2019-05-22T14:35:50.427Z,3.30
2019-05-22T14:38:19.200Z,3.87
2019-05-22T14:40:47.693Z,3.60
2019-05-22T14:43:16.472Z,3.17
2019-05-22T14:45:46.082Z,3.42
2019-05-22T14:48:14.908Z,3.90
2019-05-22T14:50:44.043Z,3.12
2019-05-22T14:53:13.940Z,3.10
2019-05-22T14:55:44.123Z,2.85
2019-05-22T14:58:14.289Z,2.90
2019-05-22T15:00:43.842Z,2.50
2019-05-22T15:03:12.405Z,2.87
2019-05-22T15:05:41.012Z,3.08
2019-05-22T15:08:10.146Z,3.08
2019-05-22T15:10:39.608Z,3.00
2019-05-22T15:13:09.605Z,3.12
2019-05-22T15:15:41.044Z,3.10
2019-05-22T15:18:10.732Z,3.00
2019-05-22T15:20:46.314Z,3.40
2019-05-22T15:23:14.980Z,3.87
2019-05-22T15:25:44.247Z,3.70
2019-05-22T15:28:13.006Z,3.45
2019-05-22T15:30:42.270Z,3.47
2019-05-22T15:33:11.721Z,3.57
2019-05-22T15:35:41.424Z,3.10
2019-05-22T15:38:11.942Z,2.60
2019-05-22T15:40:40.489Z,2.92
2019-05-22T15:43:10.115Z,3.40
2019-05-22T15:45:41.357Z,3.10
2019-05-22T15:48:17.477Z,3.67
2019-05-22T15:50:47.442Z,3.23
2019-05-22T15:53:20.330Z,3.20
2019-05-22T15:55:52.639Z,3.10
2019-05-22T15:58:23.124Z,3.15
2019-05-22T16:00:54.483Z,3.80
2019-05-22T16:03:27.626Z,3.37
2019-05-22T16:05:58.552Z,4.17
2019-05-22T16:08:29.586Z,4.22
2019-05-22T16:11:00.645Z,5.17
2019-05-22T16:13:34.519Z,6.53
2019-05-22T16:16:05.817Z,4.10
2019-05-22T16:18:36.681Z,4.08
2019-05-22T16:21:12.053Z,4.67
2019-05-22T16:23:42.911Z,5.40
2019-05-22T16:26:14.163Z,5.37
2019-05-22T16:28:46.248Z,4.40
2019-05-22T16:31:17.569Z,4.90
2019-05-22T16:33:48.252Z,4.60
2019-05-22T16:36:19.445Z,4.10
2019-05-22T16:38:50.500Z,4.40
2019-05-22T16:41:21.922Z,4.47
2019-05-22T16:43:52.061Z,5.03
2019-05-22T16:46:23.557Z,4.70
2019-05-22T16:48:53.090Z,4.73
2019-05-22T16:51:24.954Z,4.63
2019-05-22T16:53:56.668Z,4.10
2019-05-22T16:56:27.045Z,4.50
2019-05-22T16:58:56.059Z,6.33
2019-05-22T17:01:26.642Z,4.17
2019-05-22T17:04:00.762Z,4.50
2019-05-22T17:06:29.532Z,4.57
2019-05-22T17:09:00.835Z,4.70
2019-05-22T17:11:31.531Z,5.10
2019-05-22T17:14:04.058Z,5.80
2019-05-22T17:16:36.512Z,4.90
2019-05-22T17:19:23.699Z,3.90
2019-05-22T17:21:37.314Z,7.60
2019-05-22T17:24:09.207Z,3.63
2019-05-22T17:26:38.486Z,3.67
2019-05-22T17:29:15.250Z,3.83
2019-05-22T17:31:43.932Z,4.10
2019-05-22T17:34:31.977Z,4.37
2019-05-22T17:37:05.711Z,4.10
2019-05-22T17:39:36.442Z,4.43
2019-05-22T17:42:09.223Z,3.90
2019-05-22T17:44:42.545Z,4.23
2019-05-22T17:47:13.021Z,4.80
2019-05-22T17:49:42.041Z,4.97
2019-05-22T17:52:12.238Z,5.80
2019-05-22T17:54:43.019Z,5.77
2019-05-22T17:57:14.783Z,5.00
2019-05-22T17:59:44.812Z,5.43
2019-05-22T18:02:15.219Z,6.00
2019-05-22T18:04:44.678Z,5.17
2019-05-22T18:07:15.934Z,5.30
2019-05-22T18:10:03.073Z,4.90
2019-05-22T18:12:31.651Z,7.40
2019-05-22T18:15:00.441Z,4.90
2019-05-22T18:17:29.069Z,5.53
2019-05-22T18:19:58.127Z,7.73
2019-05-22T18:22:26.505Z,4.70
2019-05-22T18:24:55.256Z,5.20
2019-05-22T18:27:25.383Z,4.53
2019-05-22T18:29:54.425Z,4.63
2019-05-22T18:32:23.322Z,4.83
2019-05-22T18:34:51.629Z,4.97
2019-05-22T18:37:22.634Z,4.47
2019-05-22T18:39:51.062Z,4.40
2019-05-22T18:42:22.000Z,4.30
2019-05-22T18:44:50.606Z,4.07
2019-05-22T18:47:20.746Z,3.40
2019-05-22T18:49:49.677Z,3.27
2019-05-22T18:52:18.704Z,3.23
2019-05-22T18:54:47.274Z,5.00
2019-05-22T18:57:16.892Z,5.00
2019-05-22T18:59:45.744Z,5.93
2019-05-22T19:02:16.937Z,5.50
2019-05-22T19:04:47.735Z,5.10
2019-05-22T19:07:16.334Z,5.30
2019-05-22T19:09:47.335Z,4.70
2019-05-22T19:12:17.962Z,4.70
2019-05-22T19:14:46.734Z,5.03
2019-05-22T19:17:18.283Z,4.73
2019-05-22T19:19:50.012Z,4.90
2019-05-22T19:22:39.180Z,5.13
2019-05-22T19:25:11.039Z,5.47
2019-05-22T19:27:41.834Z,4.03
2019-05-22T19:30:11.320Z,4.40
2019-05-22T19:32:40.102Z,4.63
2019-05-22T19:35:12.027Z,7.60
2019-05-22T19:37:40.855Z,8.00
2019-05-22T19:40:11.934Z,14.23
2019-05-22T19:42:41.035Z,26.63
2019-05-22T19:45:12.206Z,6.10
2019-05-22T19:47:49.946Z,10.10
2019-05-22T19:50:23.144Z,8.73
2019-05-22T19:52:55.279Z,8.97
2019-05-22T19:55:27.069Z,8.07
2019-05-22T19:57:55.854Z,6.00
2019-05-22T20:00:27.409Z,5.20
2019-05-22T20:02:57.624Z,5.47
2019-05-22T20:05:26.669Z,5.13
2019-05-22T20:07:56.190Z,5.47
2019-05-22T20:10:25.246Z,4.97
2019-05-22T20:12:55.818Z,5.00
2019-05-22T20:15:24.423Z,6.17
2019-05-22T20:18:12.792Z,6.33
2019-05-22T20:20:44.412Z,5.50
2019-05-22T20:23:13.659Z,5.67
2019-05-22T20:25:43.088Z,5.83
2019-05-22T20:28:11.969Z,6.43
2019-05-22T20:30:41.966Z,5.90
2019-05-22T20:33:11.180Z,6.20
2019-05-22T20:35:40.706Z,5.70
2019-05-22T20:38:11.683Z,6.33
2019-05-22T20:40:43.502Z,6.80
2019-05-22T20:43:12.934Z,6.50
2019-05-22T20:45:45.128Z,6.60
2019-05-22T20:48:29.817Z,6.00
2019-05-22T20:51:00.801Z,5.97
2019-05-22T20:53:32.338Z,6.57
2019-05-22T20:56:01.300Z,6.03
2019-05-22T20:58:33.412Z,6.60
2019-05-22T21:01:04.596Z,6.37
2019-05-22T21:03:33.567Z,6.10
2019-05-22T21:06:06.485Z,6.20
2019-05-22T21:08:37.833Z,7.87
2019-05-22T21:11:09.229Z,7.17
2019-05-22T21:13:39.784Z,6.63
2019-05-22T21:16:08.772Z,7.27
2019-05-22T21:18:41.878Z,6.90
2019-05-22T21:21:11.683Z,7.27
2019-05-22T21:23:41.411Z,6.70
2019-05-22T21:26:11.254Z,7.00
2019-05-22T21:28:41.060Z,8.80
2019-05-22T21:31:09.915Z,8.23
2019-05-22T21:33:39.023Z,7.90
2019-05-22T21:36:10.362Z,7.27
2019-05-22T21:38:40.541Z,7.43
2019-05-22T21:41:09.524Z,7.40
2019-05-22T21:43:38.764Z,8.03
2019-05-22T21:46:08.702Z,7.97
2019-05-22T21:48:38.849Z,7.87
2019-05-22T21:51:08.254Z,8.07
2019-05-22T21:53:37.342Z,7.60
2019-05-22T21:56:06.361Z,8.30
2019-05-22T21:58:36.629Z,8.77
2019-05-22T22:01:23.789Z,8.73
2019-05-22T22:03:58.476Z,9.00
2019-05-22T22:06:27.806Z,9.50
2019-05-22T22:08:58.544Z,9.83
2019-05-22T22:11:29.579Z,9.70
2019-05-22T22:13:58.883Z,9.50
2019-05-22T22:16:28.729Z,9.83
2019-05-22T22:18:57.482Z,9.20
2019-05-22T22:21:26.417Z,9.50
2019-05-22T22:23:54.909Z,9.67
2019-05-22T22:26:25.955Z,9.93
2019-05-22T22:28:55.517Z,9.60
2019-05-22T22:31:26.570Z,10.07
2019-05-22T22:34:06.683Z,9.87
2019-05-22T22:36:36.434Z,9.53
2019-05-22T22:39:10.732Z,10.00
2019-05-22T22:41:43.279Z,9.13
2019-05-22T22:44:12.871Z,10.40
2019-05-22T22:46:54.455Z,10.53
2019-05-22T22:49:27.071Z,10.40
2019-05-22T22:51:57.070Z,10.60
2019-05-22T22:54:27.437Z,10.97
2019-05-22T22:56:56.856Z,10.40
2019-05-22T22:59:26.447Z,10.93
2019-05-22T23:02:00.662Z,10.63
2019-05-22T23:04:30.264Z,11.00
2019-05-22T23:07:07.114Z,11.70
2019-05-22T23:09:39.761Z,12.20
2019-05-22T23:12:09.315Z,11.87
2019-05-22T23:14:44.865Z,11.47
2019-05-22T23:17:14.019Z,12.37
2019-05-22T23:19:45.251Z,11.57
2019-05-22T23:22:21.306Z,11.40
2019-05-22T23:24:53.158Z,12.10
2019-05-22T23:27:23.171Z,10.73
2019-05-22T23:29:51.624Z,11.40
2019-05-22T23:32:22.224Z,11.03
2019-05-22T23:34:51.674Z,12.60
2019-05-22T23:37:21.716Z,12.73
2019-05-22T23:39:53.124Z,13.20
2019-05-22T23:42:30.744Z,13.50
2019-05-22T23:45:06.216Z,14.17
2019-05-22T23:47:50.396Z,12.83
2019-05-22T23:50:20.199Z,12.87
2019-05-22T23:52:48.983Z,12.30
2019-05-22T23:55:18.177Z,11.87
2019-05-22T23:57:49.545Z,12.50
